Time;durP1;ratioP1;P1;durP2;ratioP2;P2;SDS_P1;SDS_P2;PMS_P1;PMS_P2;Temp;Humidity;BMP_temperature;BMP_pressure;BME280_temperature;BME280_humidity;BME280_pressure;Samples;Min_cycle;Max_cycle;Signal;HPM_P1;HPM_P2
2021/08/17 00:01:36;;;;;;;5.53;1.70;;;;;;;16.73;63.29;99573.35;2180600;81;21049;-90
2021/08/17 00:04:37;;;;;;;3.83;1.50;;;;;;;16.70;63.35;99567.09;2173893;81;20994;-88
2021/08/17 00:07:38;;;;;;;6.05;1.98;;;;;;;16.64;63.59;99588.04;2163890;81;21029;-90
2021/08/17 00:10:40;;;;;;;5.08;1.98;;;;;;;16.57;63.48;99575.53;2157389;81;21078;-90
2021/08/17 00:13:42;;;;;;;4.17;1.65;;;;;;;16.55;63.59;99587.49;2161345;81;21084;-88
2021/08/17 00:16:43;;;;;;;2.55;1.17;;;;;;;16.50;64.05;99582.81;2158917;81;20989;-90
2021/08/17 00:19:46;;;;;;;3.75;1.77;;;;;;;16.46;63.80;99586.13;2173376;81;21026;-88
2021/08/17 00:22:47;;;;;;;5.53;1.98;;;;;;;16.42;63.75;99587.09;2169000;81;21045;-87
2021/08/17 00:25:48;;;;;;;2.40;1.62;;;;;;;16.39;63.65;99580.00;2165434;79;20962;-88
2021/08/17 00:28:49;;;;;;;3.30;1.77;;;;;;;16.36;63.78;99578.08;2171368;81;21042;-91
2021/08/17 00:31:51;;;;;;;4.70;1.90;;;;;;;16.34;63.85;99573.45;2180234;80;21484;-89
2021/08/17 00:34:52;;;;;;;2.75;1.67;;;;;;;16.36;64.22;99574.59;2166239;81;21081;-89
2021/08/17 00:37:54;;;;;;;4.45;1.85;;;;;;;16.32;64.05;99572.02;2150683;81;21021;-88
2021/08/17 00:40:55;;;;;;;3.80;1.90;;;;;;;16.28;64.18;99564.95;2166324;81;21549;-88
2021/08/17 00:43:56;;;;;;;2.58;1.80;;;;;;;16.22;64.02;99566.32;2161936;81;20993;-88
2021/08/17 00:46:58;;;;;;;3.08;1.77;;;;;;;16.18;63.91;99582.53;2173308;80;21033;-88
2021/08/17 00:49:59;;;;;;;5.58;2.30;;;;;;;16.14;63.88;99576.80;2171517;80;20997;-88
2021/08/17 00:53:03;;;;;;;5.40;2.12;;;;;;;16.07;63.65;99588.86;2152217;80;21495;-88
2021/08/17 00:56:06;;;;;;;4.00;1.72;;;;;;;16.03;63.67;99583.65;2160406;80;21008;-88
2021/08/17 00:59:07;;;;;;;1.95;1.75;;;;;;;16.03;63.63;99576.96;2167650;81;20982;-87
2021/08/17 01:02:08;;;;;;;2.37;1.70;;;;;;;16.01;63.52;99579.02;2153260;81;20998;-90
2021/08/17 01:05:14;;;;;;;2.42;1.70;;;;;;;15.98;63.50;99579.98;2137025;81;21050;-89
2021/08/17 01:08:16;;;;;;;3.52;1.57;;;;;;;15.95;63.53;99580.41;2139501;82;21014;-88
2021/08/17 01:11:17;;;;;;;4.25;1.62;;;;;;;15.90;63.53;99578.37;2152472;82;21015;-89
2021/08/17 01:14:20;;;;;;;3.55;1.90;;;;;;;15.88;63.64;99583.11;2146672;81;21508;-90
2021/08/17 01:17:21;;;;;;;3.72;2.20;;;;;;;15.86;64.19;99576.64;2144107;81;21550;-90
2021/08/17 01:20:22;;;;;;;3.83;1.82;;;;;;;15.78;64.15;99569.39;2159686;81;21112;-90
2021/08/17 01:23:24;;;;;;;3.12;1.70;;;;;;;15.67;64.54;99569.51;2151860;81;20963;-88
2021/08/17 01:26:26;;;;;;;2.33;1.65;;;;;;;15.59;65.07;99579.92;2158578;82;21006;-88
2021/08/17 01:29:27;;;;;;;2.40;2.15;;;;;;;15.52;65.06;99572.47;2145235;82;21011;-89
2021/08/17 01:32:29;;;;;;;4.62;2.00;;;;;;;15.45;65.58;99579.16;2140502;82;20975;-90
2021/08/17 01:35:30;;;;;;;3.00;2.15;;;;;;;15.42;65.78;99573.42;2141306;82;21110;-88
2021/08/17 01:38:31;;;;;;;2.50;1.92;;;;;;;15.35;66.10;99576.13;2153990;81;21486;-88
2021/08/17 01:41:32;;;;;;;3.12;2.27;;;;;;;15.30;66.58;99577.79;2153542;82;21375;-90
2021/08/17 01:44:34;;;;;;;3.35;2.33;;;;;;;15.20;66.45;99571.53;2151782;82;21477;-90
2021/08/17 01:47:35;;;;;;;2.22;1.90;;;;;;;15.16;67.00;99570.33;2146766;81;21025;-87
2021/08/17 01:50:36;;;;;;;3.12;2.12;;;;;;;15.06;67.04;99572.08;2154666;82;20967;-88
2021/08/17 01:53:38;;;;;;;5.10;2.30;;;;;;;15.00;67.08;99579.59;2148413;82;21550;-89
2021/08/17 01:56:40;;;;;;;3.77;2.25;;;;;;;14.96;67.38;99590.41;2138164;82;21483;-89
2021/08/17 01:59:41;;;;;;;5.90;2.35;;;;;;;14.94;67.62;99595.95;2108621;83;21549;-89
2021/08/17 02:02:42;;;;;;;4.85;1.92;;;;;;;14.90;67.73;99597.92;2109175;83;21015;-91
2021/08/17 02:05:44;;;;;;;3.25;1.87;;;;;;;14.81;68.21;99606.66;2128864;82;20971;-89
2021/08/17 02:08:45;;;;;;;2.90;1.95;;;;;;;14.74;68.20;99614.66;2136318;82;21023;-91
2021/08/17 02:11:46;;;;;;;3.17;1.90;;;;;;;14.68;68.40;99614.67;2126347;82;20999;-91
2021/08/17 02:14:47;;;;;;;4.62;2.02;;;;;;;14.65;68.34;99616.42;2140412;82;21500;-91
2021/08/17 02:17:49;;;;;;;7.62;2.83;;;;;;;14.59;68.51;99623.41;2130316;82;21489;-88
2021/08/17 02:20:50;;;;;;;4.70;2.17;;;;;;;14.53;68.50;99621.03;2135353;82;21030;-88
2021/08/17 02:23:51;;;;;;;3.02;2.20;;;;;;;14.50;68.59;99628.09;2144639;82;20988;-89
2021/08/17 02:26:52;;;;;;;4.45;2.15;;;;;;;14.51;68.76;99635.06;2125604;81;21066;-87
2021/08/17 02:29:53;;;;;;;6.40;2.35;;;;;;;14.52;68.85;99630.57;2127700;82;21068;-89
2021/08/17 02:32:54;;;;;;;5.83;2.27;;;;;;;14.47;69.10;99628.50;2118936;83;21024;-89
2021/08/17 02:35:56;;;;;;;2.33;2.00;;;;;;;14.38;69.04;99643.56;2106124;83;21047;-89
2021/08/17 02:38:57;;;;;;;3.08;2.02;;;;;;;14.35;69.05;99638.94;2112881;83;20998;-88
2021/08/17 02:41:58;;;;;;;4.85;2.35;;;;;;;14.32;69.15;99641.20;2112476;82;21044;-89
2021/08/17 02:45:00;;;;;;;3.00;2.17;;;;;;;14.24;68.90;99643.53;2116847;82;21480;-88
2021/08/17 02:48:03;;;;;;;3.15;2.10;;;;;;;14.19;69.04;99642.48;2124529;82;21601;-89
2021/08/17 02:51:04;;;;;;;3.67;2.30;;;;;;;14.13;69.09;99648.13;2133419;82;21019;-91
2021/08/17 02:54:05;;;;;;;3.30;1.98;;;;;;;14.11;69.29;99648.86;2136465;82;21043;-89
2021/08/17 02:57:09;;;;;;;4.05;2.22;;;;;;;14.07;68.95;99653.75;2147306;81;21014;-87
2021/08/17 03:00:12;;;;;;;4.62;2.02;;;;;;;14.05;69.11;99658.97;2151709;81;21011;-88
2021/08/17 03:03:13;;;;;;;3.50;2.25;;;;;;;14.00;69.00;99665.44;2171618;80;21080;-87
2021/08/17 03:06:15;;;;;;;2.70;2.10;;;;;;;13.95;69.10;99658.03;2174830;80;21095;-87
2021/08/17 03:09:17;;;;;;;3.60;2.30;;;;;;;13.90;69.02;99662.61;2148309;81;21070;-90
2021/08/17 03:12:18;;;;;;;3.40;1.82;;;;;;;13.87;69.06;99659.02;2156873;80;20991;-87
2021/08/17 03:15:20;;;;;;;4.45;2.47;;;;;;;13.85;68.97;99662.90;2179233;80;21006;-90
2021/08/17 03:18:22;;;;;;;5.58;2.50;;;;;;;13.81;68.78;99659.00;2157184;80;21007;-87
2021/08/17 03:21:24;;;;;;;4.45;2.22;;;;;;;13.80;68.84;99672.03;2144228;81;21038;-90
2021/08/17 03:24:25;;;;;;;3.83;2.30;;;;;;;13.79;68.82;99667.19;2141812;82;21906;-88
2021/08/17 03:27:26;;;;;;;5.90;2.22;;;;;;;13.74;68.77;99669.65;2169727;80;21116;-88
2021/08/17 03:30:28;;;;;;;3.92;2.25;;;;;;;13.72;68.93;99673.02;2160950;80;20984;-91
2021/08/17 03:33:29;;;;;;;6.25;2.10;;;;;;;13.73;68.79;99676.50;2140003;80;21530;-91
2021/08/17 03:36:30;;;;;;;6.15;2.45;;;;;;;13.73;68.84;99687.98;2165073;80;21457;-88
2021/08/17 03:39:31;;;;;;;5.17;2.25;;;;;;;13.73;68.83;99695.98;2146352;81;21019;-88
2021/08/17 03:42:32;;;;;;;7.40;2.75;;;;;;;13.70;68.75;99683.56;2156494;81;21595;-88
2021/08/17 03:45:34;;;;;;;6.80;2.67;;;;;;;13.62;68.74;99689.87;2197302;80;21005;-89
2021/08/17 03:48:35;;;;;;;4.03;2.35;;;;;;;13.59;69.14;99696.93;2162201;80;21001;-90
2021/08/17 03:51:36;;;;;;;7.97;2.72;;;;;;;13.53;68.92;99703.87;2182055;80;21026;-91
2021/08/17 03:54:37;;;;;;;5.20;2.12;;;;;;;13.49;69.06;99704.44;2180482;80;21016;-90
2021/08/17 03:57:39;;;;;;;6.45;2.90;;;;;;;13.48;69.17;99710.29;2140638;81;21490;-89
2021/08/17 04:00:40;;;;;;;5.83;2.42;;;;;;;13.45;69.15;99715.50;2129507;82;21107;-88
2021/08/17 04:03:41;;;;;;;7.28;2.77;;;;;;;13.47;69.29;99717.98;2177165;80;21081;-89
2021/08/17 04:06:42;;;;;;;6.92;2.52;;;;;;;13.46;69.36;99725.67;2180826;80;21612;-90
2021/08/17 04:09:43;;;;;;;7.08;2.87;;;;;;;13.38;69.48;99733.30;2179968;80;21003;-91
2021/08/17 04:12:45;;;;;;;6.28;3.02;;;;;;;13.34;69.61;99726.70;2163098;80;21417;-90
2021/08/17 04:15:46;;;;;;;6.97;2.77;;;;;;;13.30;69.62;99721.97;2155626;80;21034;-89
2021/08/17 04:18:47;;;;;;;7.58;2.83;;;;;;;13.31;69.74;99728.94;2156786;80;21039;-88
2021/08/17 04:21:48;;;;;;;7.60;3.10;;;;;;;13.30;69.93;99736.11;2170471;80;21474;-92
2021/08/17 04:24:50;;;;;;;8.33;3.35;;;;;;;13.31;70.24;99732.42;2163791;80;20969;-90
2021/08/17 04:27:51;;;;;;;9.30;2.85;;;;;;;13.30;70.13;99726.78;2175749;80;21301;-91
2021/08/17 04:30:52;;;;;;;6.08;3.40;;;;;;;13.32;70.06;99727.42;2154496;81;20970;-90
2021/08/17 04:33:53;;;;;;;6.37;3.47;;;;;;;13.39;70.21;99728.79;2182231;80;21081;-89
2021/08/17 04:36:54;;;;;;;7.35;3.08;;;;;;;13.45;70.30;99734.16;2155168;80;21010;-89
2021/08/17 04:39:55;;;;;;;10.05;3.98;;;;;;;13.48;70.19;99731.61;2136298;82;21071;-88
2021/08/17 04:42:56;;;;;;;7.72;3.22;;;;;;;13.48;70.34;99741.45;2181542;80;20971;-90
2021/08/17 04:45:58;;;;;;;5.70;3.05;;;;;;;13.47;70.11;99733.16;2173145;80;21001;-89
2021/08/17 04:48:59;;;;;;;7.17;2.85;;;;;;;13.51;70.12;99737.88;2173414;80;21437;-88
2021/08/17 04:52:00;;;;;;;8.18;3.80;;;;;;;13.54;70.27;99742.81;2170207;80;20986;-88
2021/08/17 04:55:02;;;;;;;6.95;3.02;;;;;;;13.54;70.12;99742.00;2159488;80;21514;-88
2021/08/17 04:58:04;;;;;;;6.40;3.10;;;;;;;13.58;70.32;99746.76;2130908;81;21015;-87
2021/08/17 05:01:05;;;;;;;6.12;2.95;;;;;;;13.61;70.32;99745.55;2160374;81;21041;-90
2021/08/17 05:04:08;;;;;;;6.97;2.83;;;;;;;13.67;70.26;99742.09;2169927;81;21058;-89
2021/08/17 05:07:09;;;;;;;5.47;2.80;;;;;;;13.67;70.39;99743.42;2195906;79;21063;-88
2021/08/17 05:10:14;;;;;;;8.65;2.95;;;;;;;13.64;70.77;99761.15;2147821;80;21030;-88
2021/08/17 05:13:15;;;;;;;6.25;2.65;;;;;;;13.60;70.21;99763.39;2157383;81;21007;-89
2021/08/17 05:16:16;;;;;;;5.60;2.80;;;;;;;13.64;70.29;99776.62;2164996;80;21014;-90
2021/08/17 05:19:18;;;;;;;5.17;2.60;;;;;;;13.67;70.27;99776.75;2144627;81;21010;-91
2021/08/17 05:22:19;;;;;;;3.30;2.30;;;;;;;13.68;70.20;99777.91;2148509;81;21033;-88
2021/08/17 05:25:20;;;;;;;4.58;2.42;;;;;;;13.68;69.69;99786.39;2157039;81;21467;-90
2021/08/17 05:28:23;;;;;;;6.15;3.02;;;;;;;13.69;69.58;99789.39;2194733;80;21006;-89
2021/08/17 05:31:24;;;;;;;8.95;2.92;;;;;;;13.73;69.46;99794.63;2155019;80;21022;-87
2021/08/17 05:34:25;;;;;;;6.10;2.87;;;;;;;13.77;69.44;99789.72;2136652;81;21004;-90
2021/08/17 05:37:26;;;;;;;6.40;3.12;;;;;;;13.79;69.32;99796.52;2146003;80;21525;-90
2021/08/17 05:40:27;;;;;;;4.75;2.87;;;;;;;13.79;69.06;99804.51;2182685;80;20982;-89
2021/08/17 05:43:28;;;;;;;11.70;2.95;;;;;;;13.81;68.98;99801.15;2150422;79;20996;-89
2021/08/17 05:46:30;;;;;;;5.78;2.98;;;;;;;13.84;68.73;99793.27;2122762;82;21026;-91
2021/08/17 05:49:31;;;;;;;10.05;3.27;;;;;;;13.90;68.72;99801.30;2158482;80;21069;-89
2021/08/17 05:52:33;;;;;;;9.08;3.22;;;;;;;13.99;68.79;99801.14;2152013;80;21469;-88
2021/08/17 05:55:34;;;;;;;8.78;3.52;;;;;;;14.01;68.36;99807.11;2151749;80;21051;-90
2021/08/17 05:58:36;;;;;;;6.70;3.77;;;;;;;14.03;68.33;99813.09;2141009;81;21030;-89
2021/08/17 06:01:37;;;;;;;7.03;3.42;;;;;;;14.01;67.99;99808.45;2111592;82;21047;-89
2021/08/17 06:04:38;;;;;;;7.58;3.62;;;;;;;13.98;67.92;99812.33;2091641;81;21003;-90
2021/08/17 06:07:46;;;;;;;13.85;3.87;;;;;;;13.97;67.80;99816.55;2120827;81;21039;-90
2021/08/17 06:10:48;;;;;;;7.90;3.10;;;;;;;13.99;67.89;99817.97;2139076;81;21050;-89
2021/08/17 06:13:51;;;;;;;14.43;3.72;;;;;;;13.97;67.60;99812.55;2135764;81;21016;-88
2021/08/17 06:16:53;;;;;;;7.45;3.40;;;;;;;14.00;67.47;99810.30;2132947;81;21013;-90
2021/08/17 06:19:54;;;;;;;8.23;3.65;;;;;;;13.99;67.30;99807.81;2149397;81;20994;-89
2021/08/17 06:22:55;;;;;;;9.28;3.40;;;;;;;14.00;67.28;99806.81;2151112;81;21498;-89
2021/08/17 06:25:56;;;;;;;9.80;3.42;;;;;;;14.05;67.05;99808.36;2146290;81;21046;-88
2021/08/17 06:28:58;;;;;;;12.58;3.72;;;;;;;14.10;66.96;99808.08;2161671;82;22085;-89
2021/08/17 06:31:59;;;;;;;6.55;3.20;;;;;;;14.14;67.06;99807.20;2148270;81;21519;-91
2021/08/17 06:35:01;;;;;;;8.05;3.55;;;;;;;14.26;67.08;99808.78;2148790;81;20991;-88
2021/08/17 06:38:03;;;;;;;5.53;3.02;;;;;;;14.39;66.99;99817.34;2147789;81;21107;-89
2021/08/17 06:41:04;;;;;;;11.30;3.22;;;;;;;14.53;66.38;99820.44;2124240;81;22262;-91
2021/08/17 06:44:05;;;;;;;5.85;3.40;;;;;;;14.60;66.16;99823.13;2133656;81;21008;-88
2021/08/17 06:47:06;;;;;;;8.30;2.85;;;;;;;14.68;65.81;99827.77;2118086;82;21019;-87
2021/08/17 06:50:08;;;;;;;8.13;3.37;;;;;;;14.76;65.59;99826.27;2123094;81;20991;-90
2021/08/17 06:53:09;;;;;;;5.00;3.10;;;;;;;15.03;65.93;99832.99;2114351;82;21063;-90
2021/08/17 06:56:11;;;;;;;11.65;3.35;;;;;;;15.33;65.12;99833.97;2117203;81;21028;-89
2021/08/17 06:59:12;;;;;;;8.78;3.22;;;;;;;15.32;64.60;99834.49;2136146;81;21057;-92
2021/08/17 07:02:13;;;;;;;10.05;3.42;;;;;;;15.20;64.11;99839.63;2154471;80;21030;-89
2021/08/17 07:05:14;;;;;;;6.45;2.77;;;;;;;15.10;64.43;99842.38;2182195;80;21025;-88
2021/08/17 07:08:16;;;;;;;9.08;3.17;;;;;;;15.05;64.11;99840.81;2165186;80;21565;-90
2021/08/17 07:11:17;;;;;;;8.73;3.55;;;;;;;15.05;64.29;99842.16;2171063;80;21031;-89
2021/08/17 07:14:18;;;;;;;7.30;3.45;;;;;;;15.04;64.18;99836.52;2168366;80;21017;-88
2021/08/17 07:17:19;;;;;;;7.92;2.85;;;;;;;14.95;63.86;99836.70;2182123;80;21042;-88
2021/08/17 07:20:21;;;;;;;7.03;2.90;;;;;;;14.94;63.49;99840.37;2160913;80;21495;-90
2021/08/17 07:23:22;;;;;;;11.33;3.72;;;;;;;14.82;63.41;99836.66;2144681;81;21057;-88
2021/08/17 07:26:24;;;;;;;5.47;2.95;;;;;;;14.85;63.86;99844.78;2145062;81;21017;-89
2021/08/17 07:29:25;;;;;;;7.97;3.30;;;;;;;14.87;63.72;99846.75;2150526;81;21002;-90
2021/08/17 07:32:26;;;;;;;8.68;3.60;;;;;;;14.89;63.86;99858.84;2167232;79;20977;-87
2021/08/17 07:35:28;;;;;;;11.40;3.42;;;;;;;14.97;63.78;99861.86;2134703;81;21031;-88
2021/08/17 07:38:29;;;;;;;15.23;3.75;;;;;;;15.02;63.58;99854.88;2154207;81;21039;-90
2021/08/17 07:41:30;;;;;;;5.40;3.00;;;;;;;15.06;63.45;99847.28;2168683;80;21067;-88
2021/08/17 07:44:32;;;;;;;8.68;2.92;;;;;;;15.12;63.40;99842.48;2179501;80;21468;-89
2021/08/17 07:47:33;;;;;;;6.08;2.70;;;;;;;15.17;63.13;99845.34;2174219;80;20997;-88
2021/08/17 07:50:38;;;;;;;5.03;2.65;;;;;;;15.25;63.04;99846.49;2156097;80;21009;-88
2021/08/17 07:53:38;;;;;;;10.55;3.08;;;;;;;15.34;62.99;99846.30;2179260;80;21032;-89
2021/08/17 07:56:39;;;;;;;6.35;3.10;;;;;;;15.45;62.81;99841.16;2165168;81;20990;-89
2021/08/17 07:59:40;;;;;;;8.10;3.12;;;;;;;15.65;62.59;99850.55;2137822;81;21959;-90
2021/08/17 08:02:41;;;;;;;7.65;2.77;;;;;;;15.76;62.37;99856.31;2129316;82;21070;-89
2021/08/17 08:05:42;;;;;;;5.95;2.45;;;;;;;15.86;61.99;99861.56;2128883;82;21071;-88
2021/08/17 08:08:43;;;;;;;7.22;3.08;;;;;;;15.90;61.80;99864.11;2132678;82;21094;-90
2021/08/17 08:11:45;;;;;;;7.53;2.98;;;;;;;15.96;61.65;99865.66;2134264;82;21016;-88
2021/08/17 08:14:46;;;;;;;5.72;2.70;;;;;;;16.01;60.92;99858.65;2136949;82;21123;-88
2021/08/17 08:17:47;;;;;;;8.38;2.62;;;;;;;15.95;61.07;99869.38;2132594;82;21457;-89
2021/08/17 08:20:48;;;;;;;5.28;2.50;;;;;;;15.90;61.03;99864.64;2141325;82;21051;-89
2021/08/17 08:23:49;;;;;;;7.67;2.83;;;;;;;15.97;60.84;99856.62;2121044;82;21292;-89
2021/08/17 08:26:51;;;;;;;6.75;2.87;;;;;;;15.97;61.06;99857.95;2128681;82;20990;-90
2021/08/17 08:29:52;;;;;;;21.23;3.15;;;;;;;15.90;60.59;99875.34;2123553;82;21470;-89
2021/08/17 08:32:53;;;;;;;7.05;2.70;;;;;;;15.76;60.96;99867.02;2126184;82;21062;-89
2021/08/17 08:35:54;;;;;;;7.58;2.95;;;;;;;15.64;60.93;99875.62;2128486;82;21494;-90
2021/08/17 08:38:55;;;;;;;9.30;2.90;;;;;;;15.61;61.12;99885.40;2127048;82;21054;-89
2021/08/17 08:41:56;;;;;;;7.28;2.55;;;;;;;15.81;61.54;99888.10;2125132;82;21023;-89
2021/08/17 08:44:58;;;;;;;7.33;3.25;;;;;;;16.06;61.43;99877.59;2128826;82;21040;-89
2021/08/17 08:47:59;;;;;;;7.97;3.00;;;;;;;16.29;61.46;99880.33;2127314;82;20995;-87
2021/08/17 08:51:01;;;;;;;6.10;2.58;;;;;;;16.44;60.18;99876.87;2136309;82;20959;-88
2021/08/17 08:54:04;;;;;;;6.87;2.90;;;;;;;16.52;60.72;99891.37;2129463;82;20998;-88
2021/08/17 08:57:06;;;;;;;7.00;3.42;;;;;;;16.58;59.65;99873.14;2137828;81;21019;-89
2021/08/17 09:00:09;;;;;;;7.40;2.70;;;;;;;16.55;59.47;99880.75;2179538;80;21018;-89
2021/08/17 09:03:11;;;;;;;10.25;2.90;;;;;;;16.55;60.01;99884.77;2183767;80;21046;-89
2021/08/17 09:06:27;;;;;;;11.15;3.55;;;;;;;16.71;60.11;99874.11;2192707;80;21033;-88
2021/08/17 09:09:29;;;;;;;5.65;2.72;;;;;;;16.86;59.69;99877.88;2184866;80;21026;-90
2021/08/17 09:12:46;;;;;;;7.10;2.90;;;;;;;17.03;59.60;99889.25;2177265;80;21043;-88
2021/08/17 09:15:49;;;;;;;8.35;3.50;;;;;;;17.12;58.87;99892.50;2192201;79;21046;-88
2021/08/17 09:18:52;;;;;;;9.95;3.17;;;;;;;16.94;58.28;99887.02;2184053;80;21110;-89
2021/08/17 09:21:55;;;;;;;8.73;3.20;;;;;;;16.78;58.70;99891.84;2182145;80;20963;-90
2021/08/17 09:24:59;;;;;;;9.53;4.08;;;;;;;16.71;59.18;99899.56;2181864;80;21094;-88
2021/08/17 09:28:26;;;;;;;6.08;3.52;;;;;;;16.68;59.14;99902.66;2178906;80;21869;-88
2021/08/17 09:31:34;;;;;;;7.10;3.52;;;;;;;16.61;59.08;99901.33;2176783;80;21062;-91
2021/08/17 09:34:35;;;;;;;9.73;3.42;;;;;;;16.47;58.68;99895.22;2184126;80;21066;-89
2021/08/17 09:37:36;;;;;;;10.35;3.10;;;;;;;16.44;58.65;99903.64;2189641;80;21818;-89
2021/08/17 09:40:38;;;;;;;6.95;3.40;;;;;;;16.52;59.22;99908.77;2190706;79;21069;-89
2021/08/17 09:43:40;;;;;;;5.22;3.30;;;;;;;16.87;59.50;99907.67;2185289;80;21061;-88
2021/08/17 09:46:41;;;;;;;5.05;2.72;;;;;;;17.15;59.23;99911.35;2194219;79;20967;-89
2021/08/17 09:49:42;;;;;;;9.40;3.08;;;;;;;17.28;57.54;99913.94;2183896;80;21557;-89
2021/08/17 09:52:44;;;;;;;6.87;3.15;;;;;;;17.22;57.68;99922.84;2179821;80;21021;-90
2021/08/17 09:55:52;;;;;;;5.58;2.80;;;;;;;17.19;57.18;99924.62;2194777;79;21454;-91
2021/08/17 09:58:53;;;;;;;4.67;2.65;;;;;;;17.10;57.15;99917.34;2183219;79;21498;-88
2021/08/17 10:01:55;;;;;;;5.87;3.60;;;;;;;17.11;57.10;99928.89;2192561;80;21070;-89
2021/08/17 10:04:58;;;;;;;4.85;2.65;;;;;;;17.16;57.05;99930.41;2194036;79;21022;-89
2021/08/17 10:07:59;;;;;;;6.05;3.12;;;;;;;17.24;57.38;99933.66;2168510;80;21332;-87
2021/08/17 10:11:02;;;;;;;5.70;3.30;;;;;;;17.20;56.50;99932.95;2155520;80;20992;-88
2021/08/17 10:14:04;;;;;;;6.75;2.67;;;;;;;17.20;56.93;99941.00;2151462;81;21007;-90
2021/08/17 10:17:05;;;;;;;5.58;2.72;;;;;;;17.19;56.68;99935.34;2169994;80;21057;-88
2021/08/17 10:20:07;;;;;;;6.30;2.40;;;;;;;17.21;56.51;99931.41;2189171;80;21015;-89
2021/08/17 10:23:15;;;;;;;5.15;2.12;;;;;;;17.19;56.82;99931.32;2175286;80;21104;-89
2021/08/17 10:26:31;;;;;;;7.28;2.90;;;;;;;17.08;56.76;99934.16;2112070;82;21458;-88
2021/08/17 10:29:32;;;;;;;6.47;2.70;;;;;;;16.98;56.54;99937.30;2128749;82;21008;-86
2021/08/17 10:32:40;;;;;;;4.75;2.55;;;;;;;16.96;56.87;99937.21;2150410;80;21033;-88
2021/08/17 10:35:53;;;;;;;8.45;2.62;;;;;;;17.08;57.05;99932.00;2156278;81;21019;-88
2021/08/17 10:38:55;;;;;;;3.90;2.40;;;;;;;17.27;56.98;99924.37;2159973;80;20985;-88
2021/08/17 10:41:56;;;;;;;7.62;2.60;;;;;;;17.52;56.82;99924.95;2180260;80;21062;-88
2021/08/17 10:45:27;;;;;;;6.65;2.37;;;;;;;18.05;56.79;99917.86;2171226;79;21028;-88
2021/08/17 10:48:56;;;;;;;4.22;2.25;;;;;;;18.62;55.55;99913.66;2192013;79;21524;-86
2021/08/17 10:52:06;;;;;;;5.58;2.30;;;;;;;18.64;54.92;99909.70;2185416;80;21002;-89
2021/08/17 10:55:37;;;;;;;5.33;2.58;;;;;;;18.39;54.30;99915.14;2171883;80;20991;-89
2021/08/17 10:58:45;;;;;;;7.87;2.50;;;;;;;18.26;54.84;99934.88;2169563;80;21040;-89
2021/08/17 11:01:47;;;;;;;6.35;2.02;;;;;;;18.08;54.39;99922.78;2162630;80;21492;-88
2021/08/17 11:04:50;;;;;;;6.53;2.33;;;;;;;18.03;54.41;99924.77;2163732;80;20959;-89
2021/08/17 11:07:51;;;;;;;4.65;1.80;;;;;;;17.96;54.65;99937.94;2151121;81;20979;-88
2021/08/17 11:10:53;;;;;;;5.03;2.37;;;;;;;17.80;54.70;99937.45;2160272;81;21005;-89
2021/08/17 11:14:05;;;;;;;8.73;2.65;;;;;;;17.62;54.97;99944.05;2155876;81;21006;-89
2021/08/17 11:17:17;;;;;;;4.03;2.08;;;;;;;17.50;55.29;99943.11;2165785;81;21455;-88
2021/08/17 11:20:18;;;;;;;5.65;2.30;;;;;;;17.44;55.39;99938.91;2160667;81;21005;-89
2021/08/17 11:23:19;;;;;;;5.35;2.22;;;;;;;17.32;55.33;99949.21;2178336;80;21037;-88
2021/08/17 11:26:31;;;;;;;5.37;2.27;;;;;;;17.22;55.56;99951.00;2179183;81;21033;-89
2021/08/17 11:29:56;;;;;;;4.65;2.33;;;;;;;17.15;55.75;99959.08;2163307;81;20978;-90
2021/08/17 11:32:58;;;;;;;4.92;2.35;;;;;;;17.08;56.33;99961.48;2165698;81;20973;-90
2021/08/17 11:36:23;;;;;;;7.50;2.33;;;;;;;16.87;56.06;99961.27;2172037;80;20966;-89
2021/08/17 11:39:55;;;;;;;5.50;2.37;;;;;;;16.74;56.39;99966.92;2154382;80;21500;-88
2021/08/17 11:42:57;;;;;;;8.50;2.20;;;;;;;16.82;56.75;99970.45;2171402;81;20939;-89
2021/08/17 11:45:58;;;;;;;7.25;2.52;;;;;;;17.01;57.24;99969.56;2160141;80;21484;-88
2021/08/17 11:49:22;;;;;;;7.58;2.08;;;;;;;17.18;56.81;99965.88;2174864;81;21384;-88
2021/08/17 11:52:40;;;;;;;4.87;2.00;;;;;;;17.38;56.64;99965.25;2170363;81;21548;-90
2021/08/17 11:55:42;;;;;;;5.12;2.00;;;;;;;17.50;56.11;99968.06;2139324;81;22416;-89
2021/08/17 11:58:44;;;;;;;4.33;1.80;;;;;;;17.50;55.38;99967.25;2175467;80;21014;-87
2021/08/17 12:01:58;;;;;;;5.28;2.15;;;;;;;17.47;54.92;99966.63;2184699;80;21020;-89
2021/08/17 12:05:03;;;;;;;4.78;2.55;;;;;;;17.42;54.70;99972.34;2187529;79;21003;-91
2021/08/17 12:08:09;;;;;;;5.60;2.20;;;;;;;17.42;54.55;99976.36;2196468;79;21018;-87
2021/08/17 12:11:09;;;;;;;5.17;2.70;;;;;;;17.40;54.08;99976.59;2183275;80;21055;-88
2021/08/17 12:14:10;;;;;;;6.25;2.05;;;;;;;17.41;54.39;99975.55;2191096;80;21065;-90
2021/08/17 12:17:16;;;;;;;7.95;1.90;;;;;;;17.49;54.43;99975.82;2175825;80;21011;-89
2021/08/17 12:20:19;;;;;;;4.08;1.90;;;;;;;17.47;54.46;99983.25;2183848;80;20971;-89
2021/08/17 12:23:37;;;;;;;7.58;2.40;;;;;;;17.46;54.24;99971.70;2189118;80;21499;-90
2021/08/17 12:26:38;;;;;;;5.05;2.45;;;;;;;17.48;54.54;99973.66;2172183;80;21003;-91
2021/08/17 12:29:43;;;;;;;5.25;2.67;;;;;;;17.54;54.48;99977.84;2192458;80;21102;-89
2021/08/17 12:32:49;;;;;;;6.83;2.40;;;;;;;17.57;54.45;99971.55;2186139;80;21620;-86
2021/08/17 12:35:55;;;;;;;6.97;2.58;;;;;;;17.67;54.66;99972.40;2193346;79;21054;-88
2021/08/17 12:39:03;;;;;;;6.25;2.25;;;;;;;17.78;54.44;99966.36;2185875;80;20983;-89
2021/08/17 12:42:10;;;;;;;9.00;2.27;;;;;;;17.79;54.20;99961.81;2182691;79;21046;-87
2021/08/17 12:45:30;;;;;;;5.03;2.08;;;;;;;17.81;54.07;99959.22;2185744;80;21014;-90
2021/08/17 12:48:32;;;;;;;6.35;2.42;;;;;;;17.87;54.31;99960.20;2183463;80;20994;-87
2021/08/17 12:51:36;;;;;;;6.92;2.50;;;;;;;17.84;54.16;99959.30;2196259;80;20955;-89
2021/08/17 12:54:39;;;;;;;5.20;1.72;;;;;;;17.80;54.18;99964.82;2193826;80;21046;-88
2021/08/17 12:57:47;;;;;;;4.83;2.25;;;;;;;17.73;54.14;99963.47;2188310;79;21045;-93
2021/08/17 13:00:49;;;;;;;5.35;2.10;;;;;;;17.64;54.41;99962.92;2181522;80;20991;-89
2021/08/17 13:03:50;;;;;;;5.35;1.87;;;;;;;17.56;54.38;99955.66;2192634;80;21014;-88
2021/08/17 13:06:52;;;;;;;6.05;2.67;;;;;;;17.56;54.37;99958.33;2187532;80;21006;-88
2021/08/17 13:09:58;;;;;;;8.25;2.25;;;;;;;17.60;54.24;99963.59;2194288;80;21525;-88
2021/08/17 13:12:56;;;;;;;7.25;2.47;;;;;;;17.65;54.16;99961.90;2195824;80;21011;-86
2021/08/17 13:15:57;;;;;;;4.22;1.87;;;;;;;17.67;54.09;99955.77;2193359;80;21077;-89
2021/08/17 13:18:59;;;;;;;6.47;2.27;;;;;;;17.68;54.52;99962.80;2182832;80;21023;-88
2021/08/17 13:22:00;;;;;;;6.30;2.55;;;;;;;17.72;54.24;99960.50;2180215;80;21496;-89
2021/08/17 13:25:03;;;;;;;28.27;3.58;;;;;;;17.70;54.33;99961.23;2191439;80;21038;-89
2021/08/17 13:28:05;;;;;;;9.00;2.33;;;;;;;17.66;54.54;99962.19;2164852;80;20997;-90
2021/08/17 13:31:09;;;;;;;6.10;2.42;;;;;;;17.65;54.87;99955.19;2180924;80;21094;-89
2021/08/17 13:34:10;;;;;;;8.85;2.20;;;;;;;17.62;54.35;99958.28;2184424;80;21041;-90
2021/08/17 13:37:11;;;;;;;10.78;2.42;;;;;;;17.62;54.82;99951.57;2190902;80;21521;-88
2021/08/17 13:40:14;;;;;;;7.08;2.47;;;;;;;17.63;54.99;99958.60;2199148;80;21002;-91
2021/08/17 13:43:15;;;;;;;3.80;2.33;;;;;;;17.64;54.64;99961.58;2163580;80;20999;-90
2021/08/17 13:46:17;;;;;;;7.97;3.10;;;;;;;17.67;54.77;99963.00;2189684;80;21528;-90
2021/08/17 13:49:20;;;;;;;8.65;2.72;;;;;;;17.74;54.74;99960.27;2188367;80;21073;-90
2021/08/17 13:52:21;;;;;;;8.05;2.37;;;;;;;17.79;54.50;99954.58;2186609;80;21050;-89
2021/08/17 13:55:22;;;;;;;3.65;2.02;;;;;;;17.87;54.81;99955.66;2181724;80;21468;-88
2021/08/17 13:58:24;;;;;;;6.67;2.10;;;;;;;17.96;54.65;99954.05;2179240;80;20971;-92
2021/08/17 14:01:25;;;;;;;4.40;2.27;;;;;;;17.96;54.15;99950.84;2185425;80;21093;-88
2021/08/17 14:04:26;;;;;;;4.00;2.40;;;;;;;17.88;54.45;99960.53;2184340;80;21030;-92
2021/08/17 14:07:27;;;;;;;5.30;2.20;;;;;;;17.86;54.39;99957.23;2178241;79;21544;-90
2021/08/17 14:10:29;;;;;;;7.10;2.20;;;;;;;17.91;54.57;99960.09;2203484;80;21010;-91
2021/08/17 14:13:30;;;;;;;8.58;2.87;;;;;;;17.97;54.43;99961.08;2175190;79;21026;-88
2021/08/17 14:16:33;;;;;;;5.25;2.37;;;;;;;18.02;54.42;99965.24;2182976;80;21078;-88
2021/08/17 14:19:36;;;;;;;5.67;2.08;;;;;;;18.04;54.47;99969.88;2194249;79;21437;-89